Time;durP1;ratioP1;P1;durP2;ratioP2;P2;SDS_P1;SDS_P2;PMS_P1;PMS_P2;Temp;Humidity;BMP_temperature;BMP_pressure;BME280_temperature;BME280_humidity;BME280_pressure;Samples;Min_cycle;Max_cycle;Signal;HPM_P1;HPM_P2
2022/03/27 00:00:25;;;;;;;10.05;7.22;;;8.80;99.90;;;;;;5050636;28;20037;-49
2022/03/27 00:02:51;;;;;;;12.90;8.10;;;8.50;99.90;;;;;;5050941;28;20043;-45
2022/03/27 00:05:17;;;;;;;12.02;7.50;;;8.80;99.90;;;;;;5048542;28;20045;-46
2022/03/27 00:07:42;;;;;;;11.05;7.13;;;8.70;99.90;;;;;;5050634;28;20036;-50
2022/03/27 00:10:09;;;;;;;10.80;7.45;;;8.70;99.90;;;;;;5049821;28;20480;-43
2022/03/27 00:12:35;;;;;;;10.73;7.57;;;8.50;99.90;;;;;;5050964;28;20037;-48
2022/03/27 00:15:01;;;;;;;9.60;6.75;;;8.70;99.90;;;;;;5050766;28;20037;-45
2022/03/27 00:17:29;;;;;;;12.00;7.30;;;8.60;99.90;;;;;;5051625;28;20392;-46
2022/03/27 00:19:57;;;;;;;11.20;6.78;;;8.70;99.90;;;;;;5050336;28;20045;-47
2022/03/27 00:22:23;;;;;;;12.05;7.63;;;8.70;99.90;;;;;;5049868;28;20405;-47
2022/03/27 00:24:48;;;;;;;11.13;7.47;;;8.80;99.90;;;;;;5048467;28;20037;-46
2022/03/27 00:27:14;;;;;;;8.95;6.40;;;8.80;99.90;;;;;;5048296;28;20106;-48
2022/03/27 00:29:39;;;;;;;10.52;6.75;;;8.60;99.90;;;;;;5051360;28;20040;-48
2022/03/27 00:32:05;;;;;;;9.60;6.40;;;8.60;99.90;;;;;;5049053;28;20156;-44
2022/03/27 00:34:31;;;;;;;9.23;6.85;;;8.50;99.90;;;;;;5050184;28;20116;-49
2022/03/27 00:36:57;;;;;;;10.45;6.10;;;8.40;99.90;;;;;;5050942;28;20512;-46
2022/03/27 00:39:23;;;;;;;9.32;6.38;;;8.60;99.90;;;;;;5051266;28;20504;-47
2022/03/27 00:41:49;;;;;;;9.38;6.20;;;8.50;99.90;;;;;;5048581;28;20072;-46
2022/03/27 00:44:15;;;;;;;10.80;6.15;;;8.50;99.90;;;;;;5050708;28;20048;-51
2022/03/27 00:46:41;;;;;;;8.38;6.15;;;8.20;99.90;;;;;;5048960;28;20048;-44
2022/03/27 00:49:07;;;;;;;8.55;6.07;;;8.20;99.90;;;;;;5049145;28;20037;-46
2022/03/27 00:51:33;;;;;;;10.05;6.40;;;8.30;99.90;;;;;;5049607;28;20037;-49
2022/03/27 00:53:59;;;;;;;9.88;6.38;;;8.20;99.90;;;;;;5047705;28;20041;-46
2022/03/27 00:56:25;;;;;;;9.55;6.13;;;8.00;99.90;;;;;;5047698;28;20090;-44
2022/03/27 00:58:50;;;;;;;9.52;6.00;;;8.10;99.90;;;;;;5049237;28;20466;-46
2022/03/27 01:01:24;;;;;;;11.15;7.10;;;8.00;99.90;;;;;;5050884;28;20041;-49
2022/03/27 01:03:54;;;;;;;10.57;6.40;;;7.80;99.90;;;;;;5049567;28;20033;-47
2022/03/27 01:06:30;;;;;;;10.50;6.63;;;7.80;99.90;;;;;;5050984;28;20041;-44
2022/03/27 01:11:41;;;;;;;9.70;6.32;;;7.90;99.90;;;;;;5048588;28;20122;-47
2022/03/27 01:14:09;;;;;;;11.13;6.40;;;7.90;99.90;;;;;;5049769;28;20432;-44
2022/03/27 01:16:47;;;;;;;10.93;6.80;;;7.80;99.90;;;;;;5048896;28;20051;-43
2022/03/27 01:19:15;;;;;;;10.02;6.28;;;7.70;99.90;;;;;;5048926;28;20824;-44
2022/03/27 01:21:44;;;;;;;9.73;6.13;;;7.60;99.90;;;;;;5048234;28;20091;-47
2022/03/27 01:24:10;;;;;;;10.88;7.53;;;7.60;99.90;;;;;;5048851;28;20037;-46
2022/03/27 01:26:37;;;;;;;9.73;6.10;;;7.70;99.90;;;;;;5049175;28;20508;-45
2022/03/27 01:29:04;;;;;;;10.43;6.82;;;7.60;99.90;;;;;;5048929;28;20412;-45
2022/03/27 01:31:31;;;;;;;10.55;6.38;;;7.70;99.90;;;;;;5050894;28;20047;-47
2022/03/27 01:33:57;;;;;;;11.07;6.72;;;7.60;99.90;;;;;;5045993;28;20033;-48
2022/03/27 01:36:28;;;;;;;11.27;7.43;;;7.80;99.90;;;;;;5050316;28;20103;-46
2022/03/27 01:38:56;;;;;;;10.00;6.68;;;7.70;99.90;;;;;;5048941;28;20071;-47
2022/03/27 01:41:23;;;;;;;11.70;6.88;;;7.70;99.90;;;;;;5049329;28;20041;-49
2022/03/27 01:43:49;;;;;;;12.13;6.97;;;7.80;99.90;;;;;;5049449;28;20033;-47
2022/03/27 01:46:16;;;;;;;11.05;6.93;;;7.70;99.90;;;;;;5049469;28;20484;-46
2022/03/27 01:48:42;;;;;;;10.45;6.68;;;7.60;99.90;;;;;;5048531;28;20469;-47
2022/03/27 01:51:08;;;;;;;10.98;6.95;;;7.40;99.90;;;;;;5047837;28;20025;-48
2022/03/27 01:53:39;;;;;;;11.90;7.22;;;7.30;99.90;;;;;;5049571;28;20040;-45
2022/03/27 01:56:07;;;;;;;11.75;7.68;;;7.30;99.90;;;;;;5045912;28;20053;-47
2022/03/27 01:58:39;;;;;;;10.13;7.05;;;7.40;99.90;;;;;;5047603;28;20128;-48
2022/03/27 02:01:09;;;;;;;12.13;7.55;;;7.50;99.90;;;;;;5048479;28;20056;-47
2022/03/27 02:03:35;;;;;;;12.93;7.82;;;7.30;99.90;;;;;;5048701;28;20064;-46
2022/03/27 02:06:05;;;;;;;10.95;7.20;;;7.20;99.90;;;;;;5046892;28;20037;-49
2022/03/27 02:08:34;;;;;;;11.57;6.97;;;7.40;99.90;;;;;;5047523;28;20029;-45
2022/03/27 02:11:00;;;;;;;11.43;7.07;;;7.40;99.90;;;;;;5048608;28;20065;-47
2022/03/27 02:13:26;;;;;;;10.73;6.53;;;7.20;99.90;;;;;;5047115;28;20037;-48
2022/03/27 02:15:55;;;;;;;11.60;6.43;;;7.20;99.90;;;;;;5048753;28;20041;-47
2022/03/27 02:18:21;;;;;;;11.82;6.53;;;7.10;99.90;;;;;;5048272;28;20045;-46
2022/03/27 02:20:48;;;;;;;11.32;7.43;;;7.10;99.90;;;;;;5048759;28;20052;-51
2022/03/27 02:23:13;;;;;;;10.60;7.22;;;7.00;99.90;;;;;;5050893;28;20115;-45
2022/03/27 02:25:39;;;;;;;12.85;7.57;;;6.90;99.90;;;;;;5052327;28;20540;-45
2022/03/27 02:28:06;;;;;;;10.23;6.97;;;6.90;99.90;;;;;;5052987;28;20044;-45
2022/03/27 02:30:32;;;;;;;11.88;7.38;;;7.00;99.90;;;;;;5053505;28;20048;-46
2022/03/27 02:32:58;;;;;;;12.73;7.68;;;6.90;99.90;;;;;;5050971;28;20078;-47
2022/03/27 02:35:24;;;;;;;14.95;7.10;;;6.90;99.90;;;;;;5052007;28;20033;-44
2022/03/27 02:37:50;;;;;;;11.13;7.30;;;6.80;99.90;;;;;;5052320;28;20037;-44
2022/03/27 02:40:16;;;;;;;11.57;6.78;;;6.70;99.90;;;;;;5052328;28;20041;-49
2022/03/27 02:42:42;;;;;;;10.60;6.85;;;6.60;99.90;;;;;;5052926;28;20120;-47
2022/03/27 02:45:09;;;;;;;10.45;7.30;;;6.60;99.90;;;;;;5051112;28;20495;-50
2022/03/27 02:47:35;;;;;;;11.88;7.32;;;6.50;99.90;;;;;;5052050;28;20040;-49
2022/03/27 02:50:02;;;;;;;13.68;7.20;;;6.50;99.90;;;;;;5051499;28;20112;-48
2022/03/27 02:52:28;;;;;;;12.52;7.13;;;6.50;99.90;;;;;;5052440;28;20381;-46
2022/03/27 02:54:53;;;;;;;9.82;7.07;;;6.50;99.90;;;;;;5052723;28;20053;-46
2022/03/27 02:57:19;;;;;;;11.55;7.25;;;6.50;99.90;;;;;;5051458;28;20430;-47
2022/03/27 02:59:45;;;;;;;13.18;7.50;;;6.50;99.90;;;;;;5052675;28;20045;-46
2022/03/27 03:02:11;;;;;;;12.10;6.95;;;6.40;99.90;;;;;;5051105;28;20086;-46
2022/03/27 03:04:37;;;;;;;13.82;6.75;;;6.30;99.90;;;;;;5051510;28;20480;-48
2022/03/27 03:07:03;;;;;;;12.73;7.18;;;6.20;99.90;;;;;;5067128;28;20034;-48
2022/03/27 03:09:29;;;;;;;14.68;7.90;;;6.10;99.90;;;;;;5050092;28;20037;-49
2022/03/27 03:11:55;;;;;;;11.00;6.80;;;6.10;99.90;;;;;;5051602;28;20044;-46
2022/03/27 03:14:21;;;;;;;13.90;7.20;;;6.10;99.90;;;;;;5052712;28;20045;-46
2022/03/27 03:16:47;;;;;;;15.88;7.50;;;6.00;99.90;;;;;;5048763;28;20123;-44
2022/03/27 03:19:13;;;;;;;12.30;7.05;;;6.10;99.90;;;;;;5046232;28;20077;-46
2022/03/27 03:21:40;;;;;;;10.48;6.80;;;6.10;99.90;;;;;;5050575;28;20052;-46
2022/03/27 03:24:07;;;;;;;12.43;6.85;;;5.90;99.90;;;;;;5050810;28;20092;-44
2022/03/27 03:26:33;;;;;;;12.98;6.78;;;5.80;99.90;;;;;;5051891;28;20029;-48
2022/03/27 03:28:59;;;;;;;12.00;6.90;;;5.80;99.90;;;;;;5050262;28;20055;-48
2022/03/27 03:31:25;;;;;;;12.20;6.97;;;5.90;99.90;;;;;;5051534;28;20037;-45
2022/03/27 03:33:51;;;;;;;13.30;6.85;;;5.90;99.90;;;;;;5049719;28;20040;-46
2022/03/27 03:36:17;;;;;;;12.75;7.20;;;5.80;99.90;;;;;;5051543;28;20060;-47
2022/03/27 03:38:43;;;;;;;11.13;6.15;;;5.80;99.90;;;;;;5047987;28;20115;-49
2022/03/27 03:41:09;;;;;;;13.30;6.75;;;5.80;99.90;;;;;;5049186;28;20037;-47
2022/03/27 03:43:36;;;;;;;18.92;6.97;;;5.70;99.90;;;;;;5050753;28;20055;-44
2022/03/27 03:46:05;;;;;;;15.13;6.65;;;5.80;99.90;;;;;;5049915;28;20044;-49
2022/03/27 03:48:31;;;;;;;18.27;6.82;;;5.80;99.90;;;;;;5051659;28;20140;-45
2022/03/27 03:50:57;;;;;;;17.55;7.07;;;5.70;99.90;;;;;;5047636;28;20116;-48
2022/03/27 03:53:24;;;;;;;14.35;6.18;;;5.80;99.90;;;;;;5051972;28;20083;-46
2022/03/27 03:55:50;;;;;;;15.07;6.70;;;5.70;99.90;;;;;;5050758;28;20423;-44
2022/03/27 03:58:16;;;;;;;12.82;7.07;;;5.70;99.90;;;;;;5049639;28;20057;-46
2022/03/27 04:00:42;;;;;;;16.75;6.95;;;5.70;99.90;;;;;;5050589;28;20060;-47
2022/03/27 04:03:09;;;;;;;17.70;7.00;;;5.70;99.90;;;;;;5051471;28;20041;-46
2022/03/27 04:05:35;;;;;;;15.00;7.22;;;5.60;99.90;;;;;;5051742;28;20493;-46
2022/03/27 04:08:01;;;;;;;14.10;7.18;;;5.60;99.90;;;;;;5051644;28;20040;-49
2022/03/27 04:10:27;;;;;;;19.27;7.25;;;5.40;99.90;;;;;;5050362;28;20029;-48
2022/03/27 04:12:53;;;;;;;20.27;7.20;;;5.50;99.90;;;;;;5051597;28;20040;-48
2022/03/27 04:15:19;;;;;;;19.30;7.80;;;5.50;99.90;;;;;;5048516;28;20047;-46
2022/03/27 04:17:46;;;;;;;18.17;7.57;;;5.40;99.90;;;;;;5049828;28;20388;-47
2022/03/27 04:20:13;;;;;;;16.95;7.43;;;5.40;99.90;;;;;;5048625;28;20500;-46
2022/03/27 04:22:43;;;;;;;17.35;7.47;;;5.40;99.90;;;;;;5048784;28;20041;-48
2022/03/27 04:25:09;;;;;;;19.38;7.40;;;5.40;99.90;;;;;;5050791;28;20096;-47
2022/03/27 04:27:35;;;;;;;16.35;7.43;;;5.40;99.90;;;;;;5050206;28;20431;-47
2022/03/27 04:30:09;;;;;;;16.23;7.78;;;5.30;99.90;;;;;;5046707;28;20040;-46
2022/03/27 04:32:36;;;;;;;21.73;8.20;;;5.40;99.90;;;;;;5050213;28;20654;-50
2022/03/27 04:35:03;;;;;;;14.75;8.00;;;5.30;99.90;;;;;;5049656;28;20044;-49
2022/03/27 04:37:29;;;;;;;21.88;8.43;;;5.20;99.90;;;;;;5050164;28;20480;-47
2022/03/27 04:40:01;;;;;;;16.42;7.78;;;5.30;99.90;;;;;;5046550;28;20132;-47
2022/03/27 04:42:27;;;;;;;20.35;7.75;;;5.20;99.90;;;;;;5049422;28;20037;-46
2022/03/27 04:44:53;;;;;;;15.07;7.05;;;5.20;99.90;;;;;;5049604;28;20041;-49
2022/03/27 04:47:19;;;;;;;18.83;8.05;;;5.10;99.90;;;;;;5048785;28;20045;-48
2022/03/27 04:49:45;;;;;;;16.80;7.22;;;5.20;99.90;;;;;;5049670;28;20037;-45
2022/03/27 04:52:11;;;;;;;15.85;7.25;;;5.20;99.90;;;;;;5049942;28;20039;-45
2022/03/27 04:54:37;;;;;;;21.85;8.30;;;5.20;99.90;;;;;;5049895;28;20112;-48
2022/03/27 04:57:04;;;;;;;16.05;8.10;;;5.20;99.90;;;;;;5050498;28;20096;-45
2022/03/27 04:59:29;;;;;;;20.85;7.95;;;5.20;99.90;;;;;;5050471;28;20128;-50
2022/03/27 05:01:58;;;;;;;20.42;8.10;;;5.10;99.90;;;;;;5048448;28;20115;-48
2022/03/27 05:04:23;;;;;;;16.85;8.07;;;5.10;99.90;;;;;;5049793;28;20037;-45
2022/03/27 05:06:49;;;;;;;22.42;7.78;;;5.00;99.90;;;;;;5065672;28;20095;-46
2022/03/27 05:09:15;;;;;;;17.85;8.18;;;5.00;99.90;;;;;;5050412;28;20088;-49
2022/03/27 05:11:41;;;;;;;21.58;8.10;;;5.20;99.90;;;;;;5047416;28;20098;-48
2022/03/27 05:14:07;;;;;;;26.70;9.10;;;5.00;99.90;;;;;;5047735;28;20044;-45
2022/03/27 05:16:33;;;;;;;19.85;8.02;;;4.90;99.90;;;;;;5047598;28;20045;-50
2022/03/27 05:18:59;;;;;;;20.45;8.48;;;4.90;99.90;;;;;;5049234;28;20045;-48
2022/03/27 05:21:25;;;;;;;22.13;8.35;;;5.00;99.90;;;;;;5045698;28;20485;-47
2022/03/27 05:23:51;;;;;;;21.88;8.40;;;4.90;99.90;;;;;;5048702;28;20081;-45
2022/03/27 05:26:17;;;;;;;20.73;8.40;;;4.90;99.90;;;;;;5048306;28;20050;-45
2022/03/27 05:28:43;;;;;;;19.38;7.43;;;4.90;99.90;;;;;;5048692;28;20040;-43
2022/03/27 05:31:09;;;;;;;20.85;8.50;;;5.00;99.90;;;;;;5049708;28;20029;-47
2022/03/27 05:33:38;;;;;;;22.85;8.60;;;4.90;99.90;;;;;;5050250;28;20253;-49
2022/03/27 05:36:07;;;;;;;20.90;8.13;;;4.90;99.90;;;;;;5049764;28;20045;-46
2022/03/27 05:38:33;;;;;;;20.63;8.05;;;5.00;99.90;;;;;;5048048;28;20077;-47
2022/03/27 05:40:59;;;;;;;21.30;8.65;;;4.90;99.90;;;;;;5049773;28;20116;-47
2022/03/27 05:43:25;;;;;;;19.80;7.82;;;4.80;99.90;;;;;;5048596;28;20334;-50
2022/03/27 05:45:51;;;;;;;20.05;8.50;;;4.90;99.90;;;;;;5048736;28;20385;-45
2022/03/27 05:48:17;;;;;;;24.10;9.80;;;5.00;99.90;;;;;;5049210;28;20045;-45
2022/03/27 05:50:42;;;;;;;24.00;8.75;;;5.10;99.90;;;;;;5048613;28;20029;-46
2022/03/27 05:53:08;;;;;;;22.27;8.60;;;5.10;99.90;;;;;;5049971;28;20036;-45
2022/03/27 05:55:34;;;;;;;19.10;8.70;;;5.00;99.90;;;;;;5048781;28;20037;-48
2022/03/27 05:58:00;;;;;;;19.90;8.38;;;5.10;99.90;;;;;;5051379;28;20120;-47
2022/03/27 06:00:26;;;;;;;18.92;8.88;;;5.10;99.90;;;;;;5052257;28;20063;-48
2022/03/27 06:02:53;;;;;;;26.33;9.18;;;5.30;99.90;;;;;;5052752;28;20036;-46
2022/03/27 06:05:23;;;;;;;22.05;9.30;;;5.20;99.90;;;;;;5052894;28;20040;-45
2022/03/27 06:07:54;;;;;;;22.42;8.18;;;5.30;99.90;;;;;;5052398;28;20029;-47
2022/03/27 06:10:26;;;;;;;28.00;8.07;;;5.30;99.90;;;;;;5051587;28;20109;-48
2022/03/27 06:12:52;;;;;;;27.77;8.73;;;5.10;99.90;;;;;;5051215;28;20041;-46
2022/03/27 06:15:19;;;;;;;22.15;9.00;;;5.20;99.90;;;;;;5053085;28;20037;-52
2022/03/27 06:17:47;;;;;;;25.05;8.63;;;5.40;99.90;;;;;;5053670;28;20045;-49
2022/03/27 06:20:15;;;;;;;22.23;8.38;;;5.20;99.90;;;;;;5052665;28;20116;-46
2022/03/27 06:22:42;;;;;;;25.35;8.65;;;5.50;99.90;;;;;;5053718;28;20041;-50
2022/03/27 06:25:09;;;;;;;20.63;8.05;;;5.30;99.90;;;;;;5051713;28;20485;-50
2022/03/27 06:27:36;;;;;;;21.73;8.50;;;5.50;99.90;;;;;;5050796;28;20175;-50
2022/03/27 06:30:03;;;;;;;28.60;9.02;;;5.50;99.90;;;;;;5052237;28;20485;-44
2022/03/27 06:32:28;;;;;;;25.13;9.00;;;5.50;99.90;;;;;;5033394;28;20041;-50
2022/03/27 06:34:56;;;;;;;27.98;9.15;;;5.50;99.90;;;;;;5053209;28;20048;-48
2022/03/27 06:37:22;;;;;;;28.48;8.23;;;5.60;99.90;;;;;;5053520;28;20171;-47
2022/03/27 06:39:48;;;;;;;27.13;8.88;;;5.80;99.90;;;;;;5053975;28;20116;-48
2022/03/27 06:42:14;;;;;;;30.88;9.05;;;5.90;99.90;;;;;;5053756;28;20052;-49
2022/03/27 06:44:40;;;;;;;24.83;8.50;;;6.00;99.90;;;;;;5053213;28;20037;-45
2022/03/27 06:47:07;;;;;;;32.28;9.00;;;6.10;99.90;;;;;;5053209;28;20048;-48
2022/03/27 06:49:32;;;;;;;31.63;9.27;;;6.00;99.90;;;;;;5068108;28;20037;-47
2022/03/27 06:51:58;;;;;;;30.90;8.30;;;6.20;99.90;;;;;;5053421;28;20040;-46
2022/03/27 06:54:24;;;;;;;30.33;9.05;;;6.00;99.90;;;;;;5052869;28;20048;-48
2022/03/27 06:56:49;;;;;;;31.20;8.93;;;6.30;99.90;;;;;;5052630;28;20037;-46
2022/03/27 06:59:15;;;;;;;33.10;8.80;;;6.20;99.90;;;;;;5052822;28;20416;-46
2022/03/27 07:04:25;;;;;;;28.52;8.60;;;6.30;99.90;;;;;;5052139;28;20060;-51
2022/03/27 07:06:51;;;;;;;32.70;9.48;;;6.40;99.90;;;;;;5051401;28;20037;-49
2022/03/27 07:09:18;;;;;;;28.95;9.15;;;6.50;99.90;;;;;;5052497;28;20405;-49
2022/03/27 07:11:45;;;;;;;33.40;9.55;;;6.60;99.90;;;;;;5052547;28;20120;-50
2022/03/27 07:14:12;;;;;;;34.00;10.05;;;6.70;99.90;;;;;;5052896;28;20032;-47
2022/03/27 07:16:39;;;;;;;32.97;9.25;;;6.70;99.90;;;;;;5052307;28;20048;-47
2022/03/27 07:19:04;;;;;;;30.95;9.38;;;6.80;99.90;;;;;;5051574;28;20041;-50
2022/03/27 07:21:30;;;;;;;38.50;9.80;;;6.70;99.90;;;;;;5052730;28;20370;-52
2022/03/27 07:23:58;;;;;;;34.30;10.45;;;6.90;99.90;;;;;;5052510;28;20047;-50
2022/03/27 07:26:24;;;;;;;29.33;8.75;;;6.70;99.90;;;;;;5051603;28;20094;-50
2022/03/27 07:28:50;;;;;;;29.20;9.32;;;6.80;99.90;;;;;;5052214;28;20116;-47
2022/03/27 07:31:15;;;;;;;31.38;9.05;;;6.70;99.90;;;;;;5051127;28;20116;-46
2022/03/27 07:33:42;;;;;;;27.27;9.38;;;6.70;99.90;;;;;;5052443;28;20045;-46
2022/03/27 07:36:08;;;;;;;33.47;9.82;;;6.80;99.90;;;;;;5051998;28;20080;-47
2022/03/27 07:38:34;;;;;;;31.77;9.88;;;6.90;99.90;;;;;;5052136;28;20075;-46
2022/03/27 07:41:00;;;;;;;34.10;8.80;;;6.90;99.90;;;;;;5050143;28;20037;-48
2022/03/27 07:43:27;;;;;;;33.95;10.00;;;7.30;99.90;;;;;;5052079;28;20472;-48
2022/03/27 07:45:52;;;;;;;35.28;10.48;;;7.20;99.90;;;;;;5052150;28;20067;-49
2022/03/27 07:48:18;;;;;;;30.73;9.70;;;7.30;99.90;;;;;;5051923;28;20041;-50
2022/03/27 07:50:46;;;;;;;30.20;9.18;;;7.40;99.90;;;;;;5052211;28;20037;-50
2022/03/27 07:53:12;;;;;;;27.00;9.27;;;7.40;99.90;;;;;;5052353;28;20033;-46
2022/03/27 07:55:38;;;;;;;36.97;10.13;;;7.50;99.90;;;;;;5052180;28;20048;-48
2022/03/27 07:58:04;;;;;;;35.13;9.40;;;7.30;99.90;;;;;;5051666;28;20032;-49
2022/03/27 08:00:30;;;;;;;31.10;9.65;;;7.60;99.90;;;;;;5051653;28;20049;-48
2022/03/27 08:02:57;;;;;;;37.83;9.60;;;7.70;99.90;;;;;;5051934;28;20491;-48
2022/03/27 08:05:23;;;;;;;30.80;9.77;;;7.50;99.90;;;;;;5049273;28;20033;-51
2022/03/27 08:07:49;;;;;;;28.92;9.63;;;8.00;99.90;;;;;;5045574;28;20032;-48
2022/03/27 08:10:15;;;;;;;31.65;9.68;;;8.10;99.90;;;;;;5043032;28;20041;-51
2022/03/27 08:12:42;;;;;;;27.67;9.05;;;8.20;99.90;;;;;;5043700;28;20040;-45
2022/03/27 08:15:08;;;;;;;39.55;10.00;;;8.20;99.90;;;;;;5041790;28;20190;-46
2022/03/27 08:17:34;;;;;;;27.63;8.43;;;8.20;99.90;;;;;;5042396;28;20080;-49
2022/03/27 08:20:02;;;;;;;23.75;7.93;;;8.30;99.90;;;;;;5042758;28;20037;-51
2022/03/27 08:22:27;;;;;;;33.70;10.15;;;8.30;99.90;;;;;;5043367;28;20189;-48
2022/03/27 08:24:54;;;;;;;33.90;8.85;;;8.40;99.90;;;;;;5042825;28;20116;-48
2022/03/27 08:27:20;;;;;;;31.05;9.07;;;8.20;99.90;;;;;;5042165;28;20041;-46
2022/03/27 08:29:46;;;;;;;33.72;8.30;;;8.50;99.90;;;;;;5042059;28;20041;-47
2022/03/27 08:32:14;;;;;;;34.85;9.27;;;8.30;99.90;;;;;;5041010;28;20033;-47
2022/03/27 08:34:43;;;;;;;39.03;9.13;;;8.50;99.90;;;;;;5042918;28;20047;-46
2022/03/27 08:37:12;;;;;;;34.85;10.10;;;8.40;99.90;;;;;;5042718;28;20623;-50
2022/03/27 08:39:39;;;;;;;34.65;10.18;;;8.30;99.90;;;;;;5042295;28;20061;-48
2022/03/27 08:42:05;;;;;;;32.20;9.70;;;8.40;99.90;;;;;;5042555;28;20049;-48
2022/03/27 08:44:34;;;;;;;38.42;9.05;;;8.70;99.90;;;;;;5041499;28;20071;-46
2022/03/27 08:47:03;;;;;;;42.65;9.95;;;8.80;99.90;;;;;;5036870;28;20033;-50
2022/03/27 08:49:41;;;;;;;38.50;9.00;;;9.00;99.90;;;;;;5038548;28;20045;-48
2022/03/27 08:52:31;;;;;;;36.10;9.50;;;9.10;99.90;;;;;;5039309;28;20037;-50
2022/03/27 08:55:02;;;;;;;35.38;8.77;;;9.10;99.90;;;;;;5039007;28;20052;-48
2022/03/27 08:57:37;;;;;;;37.25;8.30;;;8.90;99.90;;;;;;5043712;28;20034;-52
2022/03/27 09:00:04;;;;;;;37.78;8.40;;;9.00;99.90;;;;;;5043468;28;20064;-48
2022/03/27 09:02:31;;;;;;;29.70;8.02;;;8.90;99.90;;;;;;5040978;28;20060;-49
2022/03/27 09:04:57;;;;;;;35.70;8.38;;;8.90;99.90;;;;;;5040645;28;20545;-48
2022/03/27 09:07:24;;;;;;;30.85;8.00;;;9.20;99.90;;;;;;5045698;28;20076;-51
2022/03/27 09:09:53;;;;;;;32.65;8.18;;;9.50;99.90;;;;;;5043997;28;20037;-49
2022/03/27 09:12:20;;;;;;;31.30;7.85;;;9.60;99.90;;;;;;5041193;28;20051;-44
2022/03/27 09:14:46;;;;;;;28.90;7.35;;;9.90;99.90;;;;;;5042169;28;20084;-51
2022/03/27 09:17:13;;;;;;;33.88;7.63;;;9.80;99.90;;;;;;5044448;28;20079;-45
2022/03/27 09:19:48;;;;;;;36.50;8.63;;;9.60;99.90;;;;;;5046765;28;20045;-49
2022/03/27 09:22:19;;;;;;;28.63;7.40;;;10.00;99.90;;;;;;5042066;28;20038;-50
2022/03/27 09:24:57;;;;;;;28.73;7.30;;;9.70;99.90;;;;;;5040416;28;20090;-48
2022/03/27 09:27:34;;;;;;;31.73;8.00;;;10.00;99.90;;;;;;5059997;28;20036;-51
2022/03/27 09:30:09;;;;;;;28.05;7.30;;;10.20;99.90;;;;;;5045203;28;20469;-49
2022/03/27 09:32:45;;;;;;;29.00;7.38;;;10.10;99.90;;;;;;5039794;28;20131;-51
2022/03/27 09:35:17;;;;;;;29.05;7.68;;;10.40;99.90;;;;;;5040657;28;20086;-49
2022/03/27 09:37:46;;;;;;;25.20;5.97;;;10.50;99.90;;;;;;5045886;28;20064;-50
2022/03/27 09:40:14;;;;;;;29.00;6.88;;;10.60;99.90;;;;;;5042704;28;20052;-48
2022/03/27 09:42:41;;;;;;;32.75;6.93;;;10.40;99.90;;;;;;5039114;28;20041;-44
2022/03/27 09:45:13;;;;;;;29.92;6.47;;;10.50;99.90;;;;;;5044066;28;20067;-46
2022/03/27 09:47:40;;;;;;;29.13;6.18;;;10.50;99.90;;;;;;5043523;28;20116;-47
2022/03/27 09:50:07;;;;;;;31.65;6.25;;;11.00;99.90;;;;;;5042559;28;20120;-50
2022/03/27 09:52:33;;;;;;;29.27;6.78;;;11.20;99.90;;;;;;5040771;28;20038;-46
2022/03/27 09:54:59;;;;;;;27.50;6.18;;;11.10;99.90;;;;;;5043031;28;20040;-47
2022/03/27 09:57:36;;;;;;;27.75;5.88;;;11.00;99.90;;;;;;5044616;28;20045;-47
2022/03/27 10:00:16;;;;;;;29.33;6.35;;;11.40;99.90;;;;;;5043728;28;20088;-47
2022/03/27 10:02:43;;;;;;;33.85;6.35;;;11.30;99.90;;;;;;5040127;28;20040;-45
2022/03/27 10:05:14;;;;;;;28.33;5.63;;;11.40;99.90;;;;;;5043745;28;20041;-50
2022/03/27 10:07:47;;;;;;;26.08;5.70;;;11.30;99.90;;;;;;5041431;28;20039;-48
2022/03/27 10:10:14;;;;;;;26.23;5.97;;;11.10;99.90;;;;;;5041620;28;20095;-48
2022/03/27 10:12:43;;;;;;;24.20;5.38;;;11.30;99.90;;;;;;5039317;28;20037;-46
2022/03/27 10:15:12;;;;;;;25.33;5.40;;;11.10;99.90;;;;;;5044843;28;20036;-50
2022/03/27 10:17:40;;;;;;;25.08;5.90;;;11.10;99.90;;;;;;5043654;28;20043;-49
2022/03/27 10:20:13;;;;;;;21.50;5.40;;;11.40;99.90;;;;;;5041914;28;20562;-49
2022/03/27 10:23:04;;;;;;;23.50;5.00;;;11.40;99.90;;;;;;5040255;28;20084;-48
2022/03/27 10:25:38;;;;;;;28.02;5.35;;;11.60;99.90;;;;;;5039085;28;20489;-48
2022/03/27 10:28:06;;;;;;;34.83;6.15;;;11.60;99.90;;;;;;5040509;28;20033;-45
2022/03/27 10:30:33;;;;;;;24.48;5.38;;;11.80;99.90;;;;;;5042113;28;20034;-48
2022/03/27 10:33:01;;;;;;;26.05;5.95;;;12.00;99.90;;;;;;5040595;28;20033;-51
2022/03/27 10:35:58;;;;;;;22.00;5.28;;;12.20;99.90;;;;;;5044955;28;20044;-49
2022/03/27 10:38:42;;;;;;;19.55;4.93;;;12.40;99.90;;;;;;5044408;28;20037;-48
2022/03/27 10:41:22;;;;;;;20.65;4.90;;;12.30;99.90;;;;;;5040828;28;20041;-51
2022/03/27 10:43:59;;;;;;;17.20;4.40;;;12.40;99.90;;;;;;5039908;28;20064;-48
2022/03/27 10:46:26;;;;;;;27.55;5.35;;;12.40;99.90;;;;;;5046440;28;20380;-48
2022/03/27 10:49:08;;;;;;;27.88;4.93;;;12.50;99.90;;;;;;5046080;28;20072;-46
2022/03/27 10:51:36;;;;;;;20.02;4.07;;;12.50;99.90;;;;;;5051148;28;20484;-49
2022/03/27 10:54:18;;;;;;;26.75;5.28;;;12.50;99.90;;;;;;5052791;28;20048;-48
2022/03/27 10:56:45;;;;;;;22.33;4.70;;;12.50;99.90;;;;;;5049098;28;20040;-49
2022/03/27 10:59:26;;;;;;;21.52;3.95;;;12.50;99.90;;;;;;5044183;28;20071;-49
2022/03/27 11:01:51;;;;;;;22.38;4.40;;;12.70;99.90;;;;;;5042220;28;20124;-49
2022/03/27 11:04:24;;;;;;;21.70;4.60;;;12.70;99.90;;;;;;5048064;28;20127;-49
2022/03/27 11:07:28;;;;;;;20.42;4.57;;;12.80;99.90;;;;;;5047258;28;20469;-49
2022/03/27 11:09:53;;;;;;;24.58;5.30;;;13.20;99.90;;;;;;5043382;28;20102;-48
2022/03/27 11:12:25;;;;;;;21.77;4.45;;;13.50;99.90;;;;;;5033352;28;20041;-48
2022/03/27 11:14:56;;;;;;;19.58;4.53;;;13.50;99.90;;;;;;5036562;28;20055;-48
2022/03/27 11:17:40;;;;;;;15.50;4.68;;;13.60;99.90;;;;;;5035579;28;20045;-53
2022/03/27 11:20:11;;;;;;;18.33;4.68;;;14.20;99.90;;;;;;5037811;28;20179;-50
2022/03/27 11:22:51;;;;;;;21.95;4.60;;;14.30;99.60;;;;;;5039238;28;20511;-48
2022/03/27 11:25:37;;;;;;;19.40;4.00;;;14.30;99.90;;;;;;5039948;28;20108;-47
2022/03/27 11:28:13;;;;;;;19.60;4.47;;;14.00;97.30;;;;;;5039976;28;20036;-47
2022/03/27 11:30:58;;;;;;;16.20;3.72;;;14.10;97.30;;;;;;5052467;28;20041;-50
2022/03/27 11:33:31;;;;;;;18.05;4.15;;;14.10;95.50;;;;;;5040093;28;20035;-51
2022/03/27 11:36:09;;;;;;;20.58;4.72;;;14.10;96.10;;;;;;5039678;28;20121;-45
2022/03/27 11:38:58;;;;;;;21.58;4.10;;;14.10;96.70;;;;;;5042374;28;20087;-50
2022/03/27 11:41:43;;;;;;;16.00;3.30;;;14.80;98.70;;;;;;5042081;28;20052;-49
2022/03/27 11:47:34;;;;;;;14.18;3.92;;;14.90;91.80;;;;;;5043398;28;20430;-49
2022/03/27 11:49:59;;;;;;;18.88;3.70;;;14.80;93.60;;;;;;5042730;28;20067;-51
2022/03/27 11:52:25;;;;;;;19.23;3.65;;;15.10;92.30;;;;;;5042043;28;20048;-49
2022/03/27 11:55:06;;;;;;;17.58;4.07;;;15.60;91.80;;;;;;5040020;28;20033;-52
2022/03/27 11:57:48;;;;;;;20.88;3.97;;;15.60;92.10;;;;;;5042977;28;20024;-48
2022/03/27 12:00:15;;;;;;;19.60;3.97;;;15.60;92.50;;;;;;5042199;28;20052;-48
2022/03/27 12:02:43;;;;;;;20.45;4.15;;;16.20;94.00;;;;;;5042418;28;20124;-49
2022/03/27 12:05:13;;;;;;;16.23;3.67;;;16.10;92.00;;;;;;5041833;28;20083;-45
2022/03/27 12:07:51;;;;;;;15.85;3.30;;;16.50;85.90;;;;;;5041537;28;20048;-44
2022/03/27 12:10:18;;;;;;;14.10;3.08;;;16.60;87.50;;;;;;5041366;28;20076;-49
2022/03/27 12:13:01;;;;;;;16.33;3.90;;;16.50;82.70;;;;;;5043303;28;20025;-48
2022/03/27 12:15:46;;;;;;;18.23;3.88;;;16.60;84.40;;;;;;5042713;28;20056;-48
2022/03/27 12:18:31;;;;;;;15.88;3.80;;;16.60;85.90;;;;;;5043497;28;22665;-50
2022/03/27 12:20:58;;;;;;;17.40;4.32;;;17.10;86.20;;;;;;5041629;28;20051;-47
2022/03/27 12:23:33;;;;;;;16.35;3.75;;;17.00;85.60;;;;;;5041552;28;20060;-51
2022/03/27 12:32:08;;;;;;;14.98;3.15;;;16.90;80.40;;;;;;5042560;28;20035;-46
2022/03/27 12:34:41;;;;;;;15.35;3.58;;;16.80;74.70;;;;;;5037970;28;20083;-49
2022/03/27 12:37:19;;;;;;;14.45;3.03;;;17.10;69.20;;;;;;5036945;28;20044;-51
2022/03/27 12:39:47;;;;;;;11.90;3.38;;;17.60;72.20;;;;;;5039945;28;20120;-48
2022/03/27 12:42:28;;;;;;;16.63;3.30;;;18.20;72.70;;;;;;5049595;28;20068;-45
2022/03/27 12:44:54;;;;;;;18.25;3.70;;;17.90;69.00;;;;;;5050565;28;20504;-50
2022/03/27 12:47:33;;;;;;;13.90;3.35;;;18.10;71.00;;;;;;5049710;28;20036;-48
2022/03/27 12:50:00;;;;;;;16.88;3.65;;;18.30;70.30;;;;;;5051119;28;20512;-46
2022/03/27 12:52:27;;;;;;;14.38;2.70;;;18.30;67.70;;;;;;5051056;28;20075;-48
2022/03/27 12:54:56;;;;;;;18.13;3.17;;;18.30;64.90;;;;;;5051074;28;20477;-50
2022/03/27 12:57:22;;;;;;;17.00;3.20;;;18.20;64.10;;;;;;5050693;28;20041;-47
2022/03/27 12:59:48;;;;;;;14.20;3.22;;;18.10;64.90;;;;;;5050329;28;20512;-47
2022/03/27 13:02:27;;;;;;;15.23;3.38;;;18.50;64.50;;;;;;5050947;28;20049;-51
2022/03/27 13:05:02;;;;;;;14.60;3.15;;;19.00;62.20;;;;;;5050637;28;20044;-51
2022/03/27 13:07:50;;;;;;;16.83;2.70;;;19.20;62.20;;;;;;5050416;28;20045;-47